Toowoomba, Queensland

1:35 AM AEST on October 25, 2014 (GMT +1000)
Parkwood Mt Lofty | Change Station
CLOSE
Current Station
Personal Weather Station
Location: Toowoomba, QUEENSLAND
Elevation: 2205 ft
Nearby Weather Stations

Elev 2205 ft 27.55 °S, 151.98 °E | Updated 37 seconds ago

Clear
Clear
56.0 °F
Feels Like 56.0 °F
N
2.8
Wind Variable Wind from ENE
Gusts 6.0 mph

Today
High -- | Low -- °F
--% Chance of Precip.
Yesterday
High -- | Low -- °F
Precip. -- in
5:07 AM 6:05 PM
New Moon, 1% visible
Pressure 30.09 in
Visibility 6.2 miles
Clouds
Dew Point 54 °F
Humidity 95%
Rainfall 0.00 in
Snow Depth Not available.
UV Not available.
Pollen Not available.
Air Quality Not available.
Flu Activity Not available.
METAR YBOK 241500Z AUTO 06008KT 9999 // NCD 17/12 Q1019

More Conditions Fewer Conditions

Pressure 30.09 in
Visibility 6.2 miles
Clouds
Dew Point 54 °F
Humidity 95%
Rainfall 0.00 in
Snow Depth Not available.
UV Not available.
Pollen Not available.
Air Quality Not available.
Flu Activity Not available.
METAR YBOK 241500Z AUTO 06008KT 9999 // NCD 17/12 Q1019

More Conditions Fewer Conditions

10-Day Weather Forecast

Almanac

Astronomy

Oct. 25, 2014 Rise Set
Actual Time 5:07 AM AEST 6:05 PM AEST
Civil Twilight 4:43 AM AEST 6:30 PM AEST
Nautical Twilight 4:14 AM AEST 6:58 PM AEST
Astronomical Twilight 3:45 AM AEST 7:28 PM AEST
Moon 5:52 AM AEST (10/25) 7:19 PM AEST (10/25)
Length of Visible Light 13h 47m
Length of Day
12h 58m
Tomorrow will be 1m 31s longer.
New Moon, 1% of the Moon is Illuminated
Oct 24
New Moon
Oct 30
First Quarter
Nov 6
Full
Nov 14
Last Quarter
Nov 22
New

Yesterday's Extremes

Country Highs Country Lows

Community

WunderPhotos

Upload Photos

1,764,589 photos uploaded!

WunderBlogs® & News

Nearby

Snow Depth

Not available.

Earthquake Activity

City Distance Mag. Time & Date
No recent earthquake activity has been reported nearby.
Minimum magnitude displayed is 2.5.

Coastal Water Temperatures

Place Temperature
No Stations Reporting

Nearby Weather Stations